sensor_id;sensor_type;location;lat;lon;timestamp;pressure;altitude;pressure_sealevel;temperature;humidity
39141;BME280;24875;48.436;10.298;2024-03-06T00:01:40;96210.84;;;8.25;100.00
39141;BME280;24875;48.436;10.298;2024-03-06T00:04:07;96205.59;;;8.25;100.00
39141;BME280;24875;48.436;10.298;2024-03-06T00:06:33;96210.88;;;8.33;100.00
39141;BME280;24875;48.436;10.298;2024-03-06T00:09:01;96209.03;;;8.41;100.00
39141;BME280;24875;48.436;10.298;2024-03-06T00:11:28;96211.66;;;8.25;100.00
39141;BME280;24875;48.436;10.298;2024-03-06T00:13:55;96210.34;;;8.29;100.00
39141;BME280;24875;48.436;10.298;2024-03-06T00:16:21;96213.31;;;8.26;100.00
39141;BME280;24875;48.436;10.298;2024-03-06T00:18:48;96217.72;;;8.34;100.00
39141;BME280;24875;48.436;10.298;2024-03-06T00:21:15;96217.25;;;8.30;100.00
39141;BME280;24875;48.436;10.298;2024-03-06T00:23:41;96215.78;;;8.28;100.00
39141;BME280;24875;48.436;10.298;2024-03-06T00:26:09;96217.25;;;8.46;100.00
39141;BME280;24875;48.436;10.298;2024-03-06T00:28:36;96217.06;;;8.16;100.00
39141;BME280;24875;48.436;10.298;2024-03-06T00:31:03;96211.81;;;8.16;100.00
39141;BME280;24875;48.436;10.298;2024-03-06T00:33:31;96219.19;;;8.12;100.00
39141;BME280;24875;48.436;10.298;2024-03-06T00:35:57;96222.34;;;8.24;100.00
39141;BME280;24875;48.436;10.298;2024-03-06T00:38:24;96223.31;;;8.23;100.00
39141;BME280;24875;48.436;10.298;2024-03-06T00:40:50;96218.16;;;8.05;100.00
39141;BME280;24875;48.436;10.298;2024-03-06T00:43:18;96217.44;;;8.29;100.00
39141;BME280;24875;48.436;10.298;2024-03-06T00:45:45;96217.38;;;8.05;100.00
39141;BME280;24875;48.436;10.298;2024-03-06T00:48:12;96220.78;;;7.97;100.00
39141;BME280;24875;48.436;10.298;2024-03-06T00:50:38;96223.41;;;7.97;100.00
39141;BME280;24875;48.436;10.298;2024-03-06T00:53:05;96216.75;;;8.19;100.00
39141;BME280;24875;48.436;10.298;2024-03-06T00:55:32;96206.06;;;8.12;100.00
39141;BME280;24875;48.436;10.298;2024-03-06T00:57:59;96210.03;;;8.16;100.00
39141;BME280;24875;48.436;10.298;2024-03-06T01:00:26;96201.00;;;8.27;100.00
39141;BME280;24875;48.436;10.298;2024-03-06T01:02:54;96211.16;;;8.14;100.00
39141;BME280;24875;48.436;10.298;2024-03-06T01:05:21;96212.66;;;8.16;100.00
39141;BME280;24875;48.436;10.298;2024-03-06T01:07:47;96205.56;;;8.09;100.00
39141;BME280;24875;48.436;10.298;2024-03-06T01:10:14;96203.84;;;7.76;100.00
39141;BME280;24875;48.436;10.298;2024-03-06T01:12:40;96209.31;;;7.90;100.00
39141;BME280;24875;48.436;10.298;2024-03-06T01:15:09;96204.88;;;7.99;100.00
39141;BME280;24875;48.436;10.298;2024-03-06T01:17:37;96215.78;;;8.20;100.00
39141;BME280;24875;48.436;10.298;2024-03-06T01:20:04;96208.53;;;8.22;100.00
39141;BME280;24875;48.436;10.298;2024-03-06T01:22:32;96208.81;;;8.03;100.00
39141;BME280;24875;48.436;10.298;2024-03-06T01:24:58;96212.13;;;7.97;100.00
39141;BME280;24875;48.436;10.298;2024-03-06T01:27:25;96217.69;;;8.10;100.00
39141;BME280;24875;48.436;10.298;2024-03-06T01:29:52;96213.44;;;8.09;100.00
39141;BME280;24875;48.436;10.298;2024-03-06T01:32:18;96211.78;;;8.08;100.00
39141;BME280;24875;48.436;10.298;2024-03-06T01:34:46;96210.69;;;8.26;100.00
39141;BME280;24875;48.436;10.298;2024-03-06T01:37:13;96201.44;;;8.06;100.00
39141;BME280;24875;48.436;10.298;2024-03-06T01:39:39;96208.69;;;8.04;100.00
39141;BME280;24875;48.436;10.298;2024-03-06T01:42:06;96214.06;;;8.03;100.00
39141;BME280;24875;48.436;10.298;2024-03-06T01:44:32;96213.44;;;8.09;100.00
39141;BME280;24875;48.436;10.298;2024-03-06T01:46:59;96210.00;;;8.08;100.00
39141;BME280;24875;48.436;10.298;2024-03-06T01:49:26;96209.56;;;8.29;100.00
39141;BME280;24875;48.436;10.298;2024-03-06T01:51:56;96207.38;;;8.08;100.00
39141;BME280;24875;48.436;10.298;2024-03-06T01:54:25;96206.25;;;8.19;100.00
39141;BME280;24875;48.436;10.298;2024-03-06T01:56:52;96210.47;;;8.04;100.00
39141;BME280;24875;48.436;10.298;2024-03-06T01:59:21;96212.44;;;8.10;100.00
39141;BME280;24875;48.436;10.298;2024-03-06T02:01:52;96214.78;;;8.21;100.00
39141;BME280;24875;48.436;10.298;2024-03-06T02:04:19;96200.59;;;7.98;100.00
39141;BME280;24875;48.436;10.298;2024-03-06T02:06:47;96208.19;;;8.01;100.00
39141;BME280;24875;48.436;10.298;2024-03-06T02:09:15;96203.47;;;8.20;100.00
39141;BME280;24875;48.436;10.298;2024-03-06T02:11:42;96209.16;;;8.08;100.00
39141;BME280;24875;48.436;10.298;2024-03-06T02:14:09;96208.19;;;8.09;100.00
39141;BME280;24875;48.436;10.298;2024-03-06T02:16:36;96203.91;;;8.00;100.00
39141;BME280;24875;48.436;10.298;2024-03-06T02:19:04;96205.84;;;7.98;100.00
39141;BME280;24875;48.436;10.298;2024-03-06T02:21:32;96205.41;;;8.18;100.00
39141;BME280;24875;48.436;10.298;2024-03-06T02:23:58;96208.47;;;7.98;100.00
39141;BME280;24875;48.436;10.298;2024-03-06T02:26:25;96213.72;;;7.98;100.00
39141;BME280;24875;48.436;10.298;2024-03-06T02:28:53;96204.41;;;8.11;100.00
39141;BME280;24875;48.436;10.298;2024-03-06T02:31:20;96202.25;;;8.07;100.00
39141;BME280;24875;48.436;10.298;2024-03-06T02:33:48;96204.59;;;8.10;100.00
39141;BME280;24875;48.436;10.298;2024-03-06T02:36:15;96205.22;;;8.04;100.00
39141;BME280;24875;48.436;10.298;2024-03-06T02:38:44;96204.25;;;8.13;100.00
39141;BME280;24875;48.436;10.298;2024-03-06T02:41:11;96204.19;;;7.89;100.00
39141;BME280;24875;48.436;10.298;2024-03-06T02:43:39;96205.22;;;7.96;100.00
39141;BME280;24875;48.436;10.298;2024-03-06T02:46:05;96196.38;;;7.97;100.00
39141;BME280;24875;48.436;10.298;2024-03-06T02:48:32;96202.59;;;7.96;100.00
39141;BME280;24875;48.436;10.298;2024-03-06T02:50:59;96203.41;;;7.96;100.00
39141;BME280;24875;48.436;10.298;2024-03-06T02:53:26;96204.38;;;7.95;100.00
39141;BME280;24875;48.436;10.298;2024-03-06T02:55:54;96210.63;;;8.02;100.00
39141;BME280;24875;48.436;10.298;2024-03-06T02:58:20;96204.19;;;7.81;100.00
39141;BME280;24875;48.436;10.298;2024-03-06T03:00:47;96204.13;;;7.57;100.00
39141;BME280;24875;48.436;10.298;2024-03-06T03:03:14;96208.28;;;7.68;100.00
39141;BME280;24875;48.436;10.298;2024-03-06T03:05:40;96204.88;;;7.83;100.00
39141;BME280;24875;48.436;10.298;2024-03-06T03:08:07;96207.84;;;7.88;100.00
39141;BME280;24875;48.436;10.298;2024-03-06T03:10:33;96201.91;;;7.94;100.00
39141;BME280;24875;48.436;10.298;2024-03-06T03:13:01;96196.72;;;8.10;100.00
39141;BME280;24875;48.436;10.298;2024-03-06T03:15:30;96206.00;;;7.88;100.00
39141;BME280;24875;48.436;10.298;2024-03-06T03:17:56;96207.16;;;7.94;100.00
39141;BME280;24875;48.436;10.298;2024-03-06T03:20:23;96202.25;;;7.91;100.00
39141;BME280;24875;48.436;10.298;2024-03-06T03:22:49;96201.22;;;7.76;100.00
39141;BME280;24875;48.436;10.298;2024-03-06T03:25:16;96202.00;;;7.61;100.00
39141;BME280;24875;48.436;10.298;2024-03-06T03:27:42;96199.56;;;7.67;100.00
39141;BME280;24875;48.436;10.298;2024-03-06T03:30:11;96201.38;;;7.59;100.00
39141;BME280;24875;48.436;10.298;2024-03-06T03:32:38;96203.00;;;7.60;100.00
39141;BME280;24875;48.436;10.298;2024-03-06T03:35:05;96203.19;;;7.66;100.00
39141;BME280;24875;48.436;10.298;2024-03-06T03:37:32;96204.00;;;7.67;100.00
39141;BME280;24875;48.436;10.298;2024-03-06T03:39:58;96204.00;;;7.59;100.00
39141;BME280;24875;48.436;10.298;2024-03-06T03:42:25;96202.19;;;7.59;100.00
39141;BME280;24875;48.436;10.298;2024-03-06T03:44:52;96206.44;;;7.60;100.00
39141;BME280;24875;48.436;10.298;2024-03-06T03:47:20;96208.97;;;7.86;100.00
39141;BME280;24875;48.436;10.298;2024-03-06T03:49:46;96207.16;;;7.78;100.00
39141;BME280;24875;48.436;10.298;2024-03-06T03:52:13;96206.31;;;7.78;100.00
39141;BME280;24875;48.436;10.298;2024-03-06T03:54:40;96210.56;;;7.71;100.00
39141;BME280;24875;48.436;10.298;2024-03-06T03:57:07;96206.97;;;7.72;100.00
39141;BME280;24875;48.436;10.298;2024-03-06T03:59:34;96207.13;;;7.70;100.00
39141;BME280;24875;48.436;10.298;2024-03-06T04:02:02;96212.13;;;7.40;100.00
39141;BME280;24875;48.436;10.298;2024-03-06T04:04:30;96209.69;;;7.54;100.00
39141;BME280;24875;48.436;10.298;2024-03-06T04:06:59;96207.63;;;7.25;100.00
39141;BME280;24875;48.436;10.298;2024-03-06T04:09:27;96213.88;;;7.31;100.00
39141;BME280;24875;48.436;10.298;2024-03-06T04:11:53;96205.91;;;7.49;100.00
39141;BME280;24875;48.436;10.298;2024-03-06T04:14:20;96214.25;;;7.44;100.00
39141;BME280;24875;48.436;10.298;2024-03-06T04:16:46;96211.78;;;7.43;100.00
39141;BME280;24875;48.436;10.298;2024-03-06T04:19:13;96209.34;;;7.41;100.00
39141;BME280;24875;48.436;10.298;2024-03-06T04:21:42;96211.78;;;7.43;100.00
39141;BME280;24875;48.436;10.298;2024-03-06T04:24:08;96213.09;;;7.06;100.00
39141;BME280;24875;48.436;10.298;2024-03-06T04:26:35;96213.78;;;7.08;100.00
39141;BME280;24875;48.436;10.298;2024-03-06T04:29:02;96214.56;;;7.00;100.00
39141;BME280;24875;48.436;10.298;2024-03-06T04:31:29;96219.78;;;7.26;100.00
39141;BME280;24875;48.436;10.298;2024-03-06T04:33:55;96218.31;;;7.31;100.00
39141;BME280;24875;48.436;10.298;2024-03-06T04:36:22;96217.66;;;7.04;100.00
39141;BME280;24875;48.436;10.298;2024-03-06T04:38:50;96219.81;;;7.41;100.00
39141;BME280;24875;48.436;10.298;2024-03-06T04:41:18;96216.53;;;7.39;100.00
39141;BME280;24875;48.436;10.298;2024-03-06T04:43:44;96216.28;;;7.17;100.00
39141;BME280;24875;48.436;10.298;2024-03-06T04:46:12;96222.16;;;7.19;100.00
39141;BME280;24875;48.436;10.298;2024-03-06T04:48:39;96217.63;;;6.96;100.00
39141;BME280;24875;48.436;10.298;2024-03-06T04:51:05;96219.28;;;6.97;100.00
39141;BME280;24875;48.436;10.298;2024-03-06T04:53:32;96225.94;;;7.17;100.00
39141;BME280;24875;48.436;10.298;2024-03-06T04:56:00;96227.56;;;7.18;100.00
39141;BME280;24875;48.436;10.298;2024-03-06T04:58:26;96224.16;;;7.25;100.00
39141;BME280;24875;48.436;10.298;2024-03-06T05:00:53;96236.16;;;7.35;100.00
39141;BME280;24875;48.436;10.298;2024-03-06T05:03:20;96237.75;;;7.21;100.00
39141;BME280;24875;48.436;10.298;2024-03-06T05:05:47;96239.38;;;7.22;100.00
39141;BME280;24875;48.436;10.298;2024-03-06T05:08:13;96243.34;;;7.26;100.00
39141;BME280;24875;48.436;10.298;2024-03-06T05:10:40;96250.38;;;7.25;100.00
39141;BME280;24875;48.436;10.298;2024-03-06T05:13:08;96246.84;;;7.42;100.00
39141;BME280;24875;48.436;10.298;2024-03-06T05:15:34;96248.47;;;7.02;100.00
39141;BME280;24875;48.436;10.298;2024-03-06T05:18:01;96243.22;;;7.02;100.00
39141;BME280;24875;48.436;10.298;2024-03-06T05:20:28;96244.91;;;7.11;100.00
39141;BME280;24875;48.436;10.298;2024-03-06T05:22:56;96242.63;;;7.16;100.00
39141;BME280;24875;48.436;10.298;2024-03-06T05:25:22;96249.75;;;6.98;100.00
39141;BME280;24875;48.436;10.298;2024-03-06T05:27:50;96253.16;;;6.73;100.00
39141;BME280;24875;48.436;10.298;2024-03-06T05:30:18;96250.59;;;6.81;100.00
39141;BME280;24875;48.436;10.298;2024-03-06T05:32:44;96252.19;;;6.74;100.00
39141;BME280;24875;48.436;10.298;2024-03-06T05:35:12;96265.31;;;6.99;100.00
39141;BME280;24875;48.436;10.298;2024-03-06T05:37:38;96259.44;;;7.05;100.00
39141;BME280;24875;48.436;10.298;2024-03-06T05:40:06;96258.66;;;7.13;100.00
39141;BME280;24875;48.436;10.298;2024-03-06T05:42:34;96256.03;;;7.13;100.00
39141;BME280;24875;48.436;10.298;2024-03-06T05:45:00;96262.66;;;7.25;100.00
39141;BME280;24875;48.436;10.298;2024-03-06T05:47:31;96263.41;;;7.42;100.00
39141;BME280;24875;48.436;10.298;2024-03-06T05:49:59;96273.47;;;7.55;100.00
39141;BME280;24875;48.436;10.298;2024-03-06T05:52:26;96267.91;;;7.25;100.00
39141;BME280;24875;48.436;10.298;2024-03-06T05:54:52;96274.50;;;7.36;100.00
39141;BME280;24875;48.436;10.298;2024-03-06T05:57:19;96271.09;;;7.36;100.00
39141;BME280;24875;48.436;10.298;2024-03-06T05:59:45;96277.16;;;7.44;100.00
39141;BME280;24875;48.436;10.298;2024-03-06T06:02:12;96277.84;;;7.46;100.00
39141;BME280;24875;48.436;10.298;2024-03-06T06:04:40;96276.41;;;7.60;100.00
39141;BME280;24875;48.436;10.298;2024-03-06T06:07:06;96283.63;;;7.58;100.00
39141;BME280;24875;48.436;10.298;2024-03-06T06:09:33;96290.25;;;7.36;100.00
39141;BME280;24875;48.436;10.298;2024-03-06T06:12:01;96292.66;;;7.63;100.00
39141;BME280;24875;48.436;10.298;2024-03-06T06:14:27;96284.78;;;7.63;100.00
39141;BME280;24875;48.436;10.298;2024-03-06T06:16:55;96292.34;;;7.66;100.00
39141;BME280;24875;48.436;10.298;2024-03-06T06:19:22;96289.13;;;7.47;100.00
39141;BME280;24875;48.436;10.298;2024-03-06T06:21:52;96293.16;;;7.59;100.00
39141;BME280;24875;48.436;10.298;2024-03-06T06:24:18;96296.34;;;7.12;100.00
39141;BME280;24875;48.436;10.298;2024-03-06T06:26:45;96305.53;;;7.16;100.00
39141;BME280;24875;48.436;10.298;2024-03-06T06:29:12;96301.25;;;7.15;100.00
39141;BME280;24875;48.436;10.298;2024-03-06T06:31:38;96300.00;;;7.26;100.00
39141;BME280;24875;48.436;10.298;2024-03-06T06:34:05;96291.50;;;7.25;100.00
39141;BME280;24875;48.436;10.298;2024-03-06T06:36:32;96305.16;;;7.36;100.00
39141;BME280;24875;48.436;10.298;2024-03-06T06:38:59;96300.94;;;7.51;100.00
39141;BME280;24875;48.436;10.298;2024-03-06T06:41:26;96300.09;;;7.42;100.00
39141;BME280;24875;48.436;10.298;2024-03-06T06:43:53;96295.31;;;7.38;100.00
39141;BME280;24875;48.436;10.298;2024-03-06T06:46:19;96297.84;;;7.47;100.00
39141;BME280;24875;48.436;10.298;2024-03-06T06:48:46;96301.34;;;7.30;100.00
39141;BME280;24875;48.436;10.298;2024-03-06T06:51:14;96299.91;;;7.36;100.00
39141;BME280;24875;48.436;10.298;2024-03-06T06:53:40;96298.47;;;7.41;100.00
39141;BME280;24875;48.436;10.298;2024-03-06T06:56:09;96298.84;;;7.54;100.00
39141;BME280;24875;48.436;10.298;2024-03-06T06:58:36;96302.19;;;7.31;100.00
39141;BME280;24875;48.436;10.298;2024-03-06T07:01:02;96300.06;;;7.34;100.00
39141;BME280;24875;48.436;10.298;2024-03-06T07:03:29;96304.97;;;7.29;100.00
39141;BME280;24875;48.436;10.298;2024-03-06T07:05:56;96308.06;;;7.33;100.00
39141;BME280;24875;48.436;10.298;2024-03-06T07:08:23;96309.25;;;7.38;100.00
39141;BME280;24875;48.436;10.298;2024-03-06T07:10:50;96311.56;;;7.16;100.00
39141;BME280;24875;48.436;10.298;2024-03-06T07:13:20;96310.47;;;7.52;100.00
39141;BME280;24875;48.436;10.298;2024-03-06T07:15:46;96312.47;;;7.58;100.00
39141;BME280;24875;48.436;10.298;2024-03-06T07:18:13;96313.75;;;6.95;100.00
39141;BME280;24875;48.436;10.298;2024-03-06T07:20:40;96313.34;;;7.08;100.00
39141;BME280;24875;48.436;10.298;2024-03-06T07:23:06;96312.53;;;7.15;100.00
39141;BME280;24875;48.436;10.298;2024-03-06T07:25:33;96315.84;;;7.17;100.00
39141;BME280;24875;48.436;10.298;2024-03-06T07:28:00;96317.50;;;7.18;100.00
39141;BME280;24875;48.436;10.298;2024-03-06T07:30:28;96318.13;;;7.45;100.00
39141;BME280;24875;48.436;10.298;2024-03-06T07:32:55;96324.47;;;7.35;100.00
39141;BME280;24875;48.436;10.298;2024-03-06T07:35:22;96330.13;;;7.23;100.00
39141;BME280;24875;48.436;10.298;2024-03-06T07:37:49;96336.91;;;7.33;100.00
39141;BME280;24875;48.436;10.298;2024-03-06T07:40:16;96329.84;;;7.26;100.00
39141;BME280;24875;48.436;10.298;2024-03-06T07:42:42;96331.16;;;7.55;100.00
39141;BME280;24875;48.436;10.298;2024-03-06T07:45:09;96335.75;;;7.61;100.00
39141;BME280;24875;48.436;10.298;2024-03-06T07:47:38;96335.84;;;7.77;100.00
39141;BME280;24875;48.436;10.298;2024-03-06T07:50:04;96339.06;;;7.71;100.00
39141;BME280;24875;48.436;10.298;2024-03-06T07:52:33;96349.34;;;7.31;100.00
39141;BME280;24875;48.436;10.298;2024-03-06T07:55:01;96341.66;;;7.29;100.00
39141;BME280;24875;48.436;10.298;2024-03-06T07:57:28;96354.47;;;7.40;100.00
39141;BME280;24875;48.436;10.298;2024-03-06T07:59:54;96358.16;;;7.47;100.00
39141;BME280;24875;48.436;10.298;2024-03-06T08:02:21;96355.59;;;7.38;100.00
39141;BME280;24875;48.436;10.298;2024-03-06T08:04:49;96355.19;;;7.50;100.00
39141;BME280;24875;48.436;10.298;2024-03-06T08:07:16;96357.94;;;7.41;100.00
39141;BME280;24875;48.436;10.298;2024-03-06T08:09:43;96357.38;;;7.55;100.00
39141;BME280;24875;48.436;10.298;2024-03-06T08:12:09;96355.25;;;7.33;100.00
39141;BME280;24875;48.436;10.298;2024-03-06T08:14:36;96357.47;;;7.45;100.00
39141;BME280;24875;48.436;10.298;2024-03-06T08:17:02;96360.38;;;7.34;100.00
39141;BME280;24875;48.436;10.298;2024-03-06T08:19:29;96362.50;;;7.39;100.00
39141;BME280;24875;48.436;10.298;2024-03-06T08:21:57;96361.00;;;7.36;100.00
39141;BME280;24875;48.436;10.298;2024-03-06T08:24:23;96363.69;;;7.78;100.00
39141;BME280;24875;48.436;10.298;2024-03-06T08:26:50;96359.56;;;8.08;100.00
39141;BME280;24875;48.436;10.298;2024-03-06T08:29:17;96364.50;;;7.70;100.00
39141;BME280;24875;48.436;10.298;2024-03-06T08:31:43;96369.88;;;7.69;100.00
39141;BME280;24875;48.436;10.298;2024-03-06T08:34:10;96368.63;;;7.81;100.00
39141;BME280;24875;48.436;10.298;2024-03-06T08:36:36;96374.06;;;7.79;100.00
39141;BME280;24875;48.436;10.298;2024-03-06T08:39:04;96369.69;;;7.62;100.00
39141;BME280;24875;48.436;10.298;2024-03-06T08:41:32;96372.47;;;7.35;100.00
39141;BME280;24875;48.436;10.298;2024-03-06T08:43:58;96381.31;;;7.34;100.00
39141;BME280;24875;48.436;10.298;2024-03-06T08:46:25;96381.81;;;7.63;100.00
39141;BME280;24875;48.436;10.298;2024-03-06T08:48:51;96379.75;;;7.49;100.00
39141;BME280;24875;48.436;10.298;2024-03-06T08:51:18;96383.44;;;7.56;100.00
39141;BME280;24875;48.436;10.298;2024-03-06T08:53:47;96378.75;;;7.68;100.00
39141;BME280;24875;48.436;10.298;2024-03-06T08:56:15;96387.78;;;7.73;100.00
39141;BME280;24875;48.436;10.298;2024-03-06T08:58:41;96389.81;;;7.87;100.00
39141;BME280;24875;48.436;10.298;2024-03-06T09:01:08;96392.22;;;7.73;100.00
39141;BME280;24875;48.436;10.298;2024-03-06T09:03:34;96396.53;;;7.82;100.00
39141;BME280;24875;48.436;10.298;2024-03-06T09:06:01;96397.53;;;7.88;100.00
39141;BME280;24875;48.436;10.298;2024-03-06T09:08:28;96405.03;;;7.84;100.00
39141;BME280;24875;48.436;10.298;2024-03-06T09:10:55;96405.00;;;7.76;100.00
39141;BME280;24875;48.436;10.298;2024-03-06T09:13:25;96402.78;;;8.22;100.00
39141;BME280;24875;48.436;10.298;2024-03-06T09:15:52;96408.19;;;8.20;100.00
39141;BME280;24875;48.436;10.298;2024-03-06T09:18:18;96405.41;;;8.22;100.00
39141;BME280;24875;48.436;10.298;2024-03-06T09:20:46;96406.81;;;8.49;100.00
39141;BME280;24875;48.436;10.298;2024-03-06T09:23:12;96411.56;;;8.05;100.00
39141;BME280;24875;48.436;10.298;2024-03-06T09:25:40;96411.97;;;8.18;100.00
39141;BME280;24875;48.436;10.298;2024-03-06T09:28:09;96418.38;;;7.98;100.00
39141;BME280;24875;48.436;10.298;2024-03-06T09:30:37;96416.13;;;8.03;100.00
39141;BME280;24875;48.436;10.298;2024-03-06T09:33:03;96418.63;;;8.04;100.00
39141;BME280;24875;48.436;10.298;2024-03-06T09:35:30;96419.22;;;8.24;100.00
39141;BME280;24875;48.436;10.298;2024-03-06T09:37:58;96425.09;;;7.92;100.00
39141;BME280;24875;48.436;10.298;2024-03-06T09:40:26;96428.19;;;7.88;100.00
39141;BME280;24875;48.436;10.298;2024-03-06T09:42:54;96425.50;;;7.80;100.00
39141;BME280;24875;48.436;10.298;2024-03-06T09:45:21;96436.44;;;7.93;100.00
39141;BME280;24875;48.436;10.298;2024-03-06T09:47:50;96426.00;;;8.09;100.00
39141;BME280;24875;48.436;10.298;2024-03-06T09:50:17;96427.47;;;7.78;100.00
39141;BME280;24875;48.436;10.298;2024-03-06T09:52:48;96427.91;;;7.99;100.00
39141;BME280;24875;48.436;10.298;2024-03-06T09:55:17;96425.28;;;7.99;100.00
39141;BME280;24875;48.436;10.298;2024-03-06T09:57:44;96429.38;;;7.93;100.00
39141;BME280;24875;48.436;10.298;2024-03-06T10:00:11;96432.53;;;8.05;100.00
39141;BME280;24875;48.436;10.298;2024-03-06T10:02:39;96429.66;;;8.16;100.00
39141;BME280;24875;48.436;10.298;2024-03-06T10:05:20;96422.41;;;8.43;100.00
39141;BME280;24875;48.436;10.298;2024-03-06T10:07:47;96425.19;;;8.49;100.00
39141;BME280;24875;48.436;10.298;2024-03-06T10:10:14;96424.03;;;8.44;100.00
39141;BME280;24875;48.436;10.298;2024-03-06T10:12:41;96420.47;;;8.53;100.00
39141;BME280;24875;48.436;10.298;2024-03-06T10:15:09;96428.16;;;8.54;100.00
39141;BME280;24875;48.436;10.298;2024-03-06T10:17:38;96419.50;;;8.78;100.00
39141;BME280;24875;48.436;10.298;2024-03-06T10:20:17;96428.72;;;8.74;100.00
39141;BME280;24875;48.436;10.298;2024-03-06T10:22:47;96436.75;;;8.80;100.00
39141;BME280;24875;48.436;10.298;2024-03-06T10:25:14;96428.41;;;8.93;100.00
39141;BME280;24875;48.436;10.298;2024-03-06T10:27:41;96423.97;;;8.93;100.00
39141;BME280;24875;48.436;10.298;2024-03-06T10:30:08;96434.41;;;8.61;100.00
39141;BME280;24875;48.436;10.298;2024-03-06T10:32:38;96435.13;;;8.79;100.00
39141;BME280;24875;48.436;10.298;2024-03-06T10:35:05;96434.38;;;8.46;100.00
39141;BME280;24875;48.436;10.298;2024-03-06T10:37:32;96436.31;;;8.36;100.00
39141;BME280;24875;48.436;10.298;2024-03-06T10:40:02;96432.38;;;8.32;100.00
39141;BME280;24875;48.436;10.298;2024-03-06T10:42:32;96438.59;;;8.31;100.00
39141;BME280;24875;48.436;10.298;2024-03-06T10:44:59;96437.34;;;8.43;100.00
39141;BME280;24875;48.436;10.298;2024-03-06T10:47:28;96435.72;;;8.65;100.00
39141;BME280;24875;48.436;10.298;2024-03-06T10:49:55;96429.72;;;8.97;100.00
39141;BME280;24875;48.436;10.298;2024-03-06T10:52:27;96429.72;;;8.97;100.00
39141;BME280;24875;48.436;10.298;2024-03-06T10:54:55;96438.75;;;8.86;100.00
39141;BME280;24875;48.436;10.298;2024-03-06T10:57:25;96435.19;;;9.19;100.00
39141;BME280;24875;48.436;10.298;2024-03-06T10:59:52;96431.88;;;9.09;100.00
39141;BME280;24875;48.436;10.298;2024-03-06T11:02:19;96432.03;;;9.00;100.00
39141;BME280;24875;48.436;10.298;2024-03-06T11:04:47;96431.56;;;9.12;100.00
39141;BME280;24875;48.436;10.298;2024-03-06T11:07:14;96436.75;;;8.80;100.00
39141;BME280;24875;48.436;10.298;2024-03-06T11:09:41;96429.56;;;8.90;100.00
39141;BME280;24875;48.436;10.298;2024-03-06T11:12:08;96439.72;;;8.77;100.00
39141;BME280;24875;48.436;10.298;2024-03-06T11:14:38;96436.28;;;8.85;100.00
39141;BME280;24875;48.436;10.298;2024-03-06T11:17:06;96429.25;;;9.09;100.00
39141;BME280;24875;48.436;10.298;2024-03-06T11:20:12;96423.34;;;9.39;100.00
39141;BME280;24875;48.436;10.298;2024-03-06T11:23:02;96429.22;;;9.65;100.00
39141;BME280;24875;48.436;10.298;2024-03-06T11:26:02;96425.31;;;9.29;100.00
39141;BME280;24875;48.436;10.298;2024-03-06T11:28:30;96426.47;;;9.26;100.00
39141;BME280;24875;48.436;10.298;2024-03-06T11:31:00;96427.44;;;9.49;100.00
39141;BME280;24875;48.436;10.298;2024-03-06T11:33:37;96423.00;;;9.58;100.00
39141;BME280;24875;48.436;10.298;2024-03-06T11:36:20;96425.13;;;9.62;100.00
39141;BME280;24875;48.436;10.298;2024-03-06T11:38:50;96419.56;;;9.25;100.00
39141;BME280;24875;48.436;10.298;2024-03-06T11:41:18;96423.00;;;9.02;100.00
39141;BME280;24875;48.436;10.298;2024-03-06T11:43:45;96421.22;;;9.10;100.00
39141;BME280;24875;48.436;10.298;2024-03-06T11:46:17;96420.38;;;8.94;100.00
39141;BME280;24875;48.436;10.298;2024-03-06T11:48:51;96419.06;;;9.30;100.00
39141;BME280;24875;48.436;10.298;2024-03-06T11:51:18;96419.06;;;8.90;100.00
39141;BME280;24875;48.436;10.298;2024-03-06T11:53:45;96422.19;;;9.02;100.00
39141;BME280;24875;48.436;10.298;2024-03-06T11:56:11;96422.69;;;9.05;100.00
39141;BME280;24875;48.436;10.298;2024-03-06T11:58:38;96429.56;;;9.06;100.00
39141;BME280;24875;48.436;10.298;2024-03-06T12:01:04;96424.00;;;9.17;100.00
39141;BME280;24875;48.436;10.298;2024-03-06T12:03:32;96425.31;;;9.13;100.00
39141;BME280;24875;48.436;10.298;2024-03-06T12:05:59;96423.84;;;9.18;100.00
39141;BME280;24875;48.436;10.298;2024-03-06T12:08:27;96425.16;;;8.99;100.00
39141;BME280;24875;48.436;10.298;2024-03-06T12:10:53;96431.22;;;9.07;100.00
39141;BME280;24875;48.436;10.298;2024-03-06T12:13:23;96427.56;;;8.92;100.00
39141;BME280;24875;48.436;10.298;2024-03-06T12:15:50;96438.44;;;8.97;100.00
39141;BME280;24875;48.436;10.298;2024-03-06T12:18:17;96432.69;;;9.17;100.00
39141;BME280;24875;48.436;10.298;2024-03-06T12:20:45;96430.41;;;9.30;100.00
39141;BME280;24875;48.436;10.298;2024-03-06T12:23:19;96428.59;;;9.55;100.00
39141;BME280;24875;48.436;10.298;2024-03-06T12:25:47;96436.16;;;9.26;100.00
39141;BME280;24875;48.436;10.298;2024-03-06T12:28:14;96436.34;;;9.24;100.00
39141;BME280;24875;48.436;10.298;2024-03-06T12:30:42;96430.41;;;9.38;100.00
39141;BME280;24875;48.436;10.298;2024-03-06T12:33:10;96435.81;;;9.21;100.00
39141;BME280;24875;48.436;10.298;2024-03-06T12:35:40;96439.44;;;9.44;100.00
39141;BME280;24875;48.436;10.298;2024-03-06T12:38:17;96433.84;;;9.39;100.00
39141;BME280;24875;48.436;10.298;2024-03-06T12:40:43;96438.78;;;9.34;100.00
39141;BME280;24875;48.436;10.298;2024-03-06T12:43:10;96438.44;;;9.29;100.00
39141;BME280;24875;48.436;10.298;2024-03-06T12:45:36;96443.38;;;9.16;100.00
39141;BME280;24875;48.436;10.298;2024-03-06T12:48:03;96433.53;;;9.50;100.00
39141;BME280;24875;48.436;10.298;2024-03-06T12:50:31;96437.97;;;9.17;100.00
39141;BME280;24875;48.436;10.298;2024-03-06T12:52:58;96438.28;;;9.14;100.00